Historyczne dane pomiarowe

Dodano dane terminowe – wersja testowa.

Dane z okresu 1951-2019

Wersja bazy: 1.34 [2019-03-16, lista zmian], aktualizacja planowana na 2019-04-15

Dane meteo z obszaru Polski uzyskane na podstawie danych udostępnionych przez Instytut Meteorologii i Gospodarki Wodnej – Państwowy Instytut Badawczy.

 

Wybierz Datę:    

       

TemperaturaWilgotnośćWiatrCiśnienieOpadyŚniegCzas trwania zjawisk
 Stacja t tx tn tng RH VA  wxwx mslp ppp RRR   cm mm wxwxwxwxwxwxwx
1966-10-11 13.7 24.8 7.0--- 0.0 2.0---- 0.0------------
1966-10-12 14.4 22.1 8.0--- 3.3 1.3---- 4.9------------
1966-10-13 14.9 20.7 12.0--- 4.7 0.0---- 2.0------------
1966-10-14 10.7 13.7 10.0--- 8.0 2.3---- 4.7------------
1966-10-15 14.0 20.2 7.5--- 0.7 3.7---- 0.0------------
1966-10-16 19.1 23.4 9.0--- 0.0 5.0---- 0.0------------
1966-10-17 13.2 23.9 8.5--- 1.0 0.0---- 0.0------------
1966-10-18 13.1 21.4 7.8--- 2.0 0.3---- 0.0------------
1966-10-19 14.4 22.2 9.3--- 0.0 2.7---- 0.0------------
1966-10-20 12.5 21.2 8.0--- 0.3 1.0---- 0.0------------
1966-10-21 11.0 19.7 6.0--- 5.3 1.0---- 1.7------------
1966-10-22 8.9 14.7 5.5--- 4.3 0.0---- 0.0------------
1966-10-23 11.1 16.6 2.3--- 7.0 1.3---- 0.0------------
1966-10-24 15.1 21.2 12.0--- 5.0 0.0---- 0.0------------
1966-10-25 14.4 21.5 10.5--- 4.0 0.0---- 12.7------------
1966-10-26 12.5 14.7 11.3--- 4.0 0.7---- 0.0------------
1966-10-27 13.0 19.4 10.5--- 6.0 1.7---- 4.6------------
1966-10-28 6.4 11.7 4.6--- 8.0 1.3---- 1.9------------
1966-10-29 2.5 4.8 1.2--- 8.0 2.3---- 5.9------------
1966-10-30 -0.4 1.4 -1.0--- 8.0 1.3---- 0.0-- 2---------
1966-10-31 -0.9 -0.1 -1.2--- 8.0 2.0---- 1.8------------
1966-11-01 0.6 4.5 -1.7--- 4.3 0.0---- 0.0------------
1966-11-02 1.1 3.5 -1.9--- 8.0 0.3---- 0.0------------
1966-11-03 6.2 9.1 0.6--- 1.3 2.0---- 0.0------------
1966-11-04 13.7 17.7 0.1--- 1.7 6.3---- 0.0------------
1966-11-05 13.0 18.2 9.8--- 3.0 5.3---- 0.0------------
1966-11-06 9.3 17.5 4.7--- 2.0 6.0---- 0.0------------
1966-11-07 8.7 19.7 3.6--- 0.3 0.0---- 0.0------------
1966-11-08 5.3 16.5 1.1--- 2.7 0.7---- 0.0------------
1966-11-09 10.9 18.4 -1.4--- 2.7 2.3---- 0.0------------
167.9 ms

 

Źródłem pochodzenia danych jest Instytut Meteorologii i Gospodarki Wodnej – Państwowy Instytut Badawczy. Dane Instytutu Meteorologii i Gospodarki Wodnej – Państwowego Instytutu Badawczego zostały przetworzone.

Dane źródłowe można odnaleźć na stronie https://dane.imgw.pl